createdAt,value
2022-08-29T00:01:33.367Z,69.95
2022-08-29T00:04:01.356Z,70.22
2022-08-29T00:06:29.419Z,70.25
2022-08-29T00:08:57.740Z,69.74
2022-08-29T00:11:25.556Z,69.46
2022-08-29T00:13:53.492Z,69.94
2022-08-29T00:16:22.632Z,69.84
2022-08-29T00:18:50.553Z,69.59
2022-08-29T00:21:18.356Z,69.67
2022-08-29T00:23:46.406Z,69.83
2022-08-29T00:26:14.447Z,70.22
2022-08-29T00:28:42.336Z,70.30
2022-08-29T00:31:10.097Z,70.38
2022-08-29T00:33:39.549Z,70.85
2022-08-29T00:36:07.875Z,70.56
2022-08-29T00:38:35.929Z,70.71
2022-08-29T00:41:04.863Z,70.84
2022-08-29T00:43:36.153Z,70.89
2022-08-29T00:46:13.049Z,70.78
2022-08-29T00:48:43.211Z,70.52
2022-08-29T00:51:18.540Z,70.17
2022-08-29T00:53:49.293Z,70.62
2022-08-29T00:56:18.690Z,70.58
2022-08-29T00:58:51.738Z,70.43
2022-08-29T01:01:20.077Z,70.04
2022-08-29T01:03:51.092Z,70.09
2022-08-29T01:06:19.662Z,70.19
2022-08-29T01:08:47.745Z,69.90
2022-08-29T01:11:35.639Z,69.74
2022-08-29T01:14:04.788Z,69.53
2022-08-29T01:16:33.338Z,69.38
2022-08-29T01:19:08.365Z,69.58
2022-08-29T01:21:42.559Z,70.24
2022-08-29T01:24:21.340Z,70.32
2022-08-29T01:26:49.118Z,70.80
2022-08-29T01:29:17.418Z,70.56
2022-08-29T01:31:57.783Z,70.43
2022-08-29T01:34:28.842Z,70.46
2022-08-29T01:36:59.019Z,70.79
2022-08-29T01:39:30.980Z,71.04
2022-08-29T01:42:01.397Z,71.51
2022-08-29T01:44:29.183Z,71.10
2022-08-29T01:47:02.657Z,71.06
2022-08-29T01:49:32.229Z,70.62
2022-08-29T01:52:00.164Z,71.23
2022-08-29T01:54:31.557Z,71.51
2022-08-29T01:56:59.433Z,72.35
2022-08-29T01:59:29.393Z,73.33
2022-08-29T02:02:01.454Z,73.41
2022-08-29T02:04:29.579Z,72.96
2022-08-29T02:06:58.760Z,72.47
2022-08-29T02:09:27.696Z,72.20
2022-08-29T02:11:58.179Z,72.24
2022-08-29T02:14:26.464Z,71.78
2022-08-29T02:16:54.259Z,71.64
2022-08-29T02:19:22.051Z,71.26
2022-08-29T02:21:51.539Z,71.60
2022-08-29T02:24:25.921Z,72.18
2022-08-29T02:26:57.780Z,71.91
2022-08-29T02:29:34.249Z,71.64
2022-08-29T02:32:07.969Z,72.30
2022-08-29T02:34:36.360Z,71.86
2022-08-29T02:37:05.171Z,71.76
2022-08-29T02:39:34.265Z,72.19
2022-08-29T02:42:03.416Z,71.58
2022-08-29T02:44:31.681Z,71.56
2022-08-29T02:46:59.473Z,71.72
2022-08-29T02:49:27.381Z,72.01
2022-08-29T02:51:55.193Z,72.34
2022-08-29T02:54:23.626Z,72.07
2022-08-29T02:56:51.571Z,72.15
2022-08-29T02:59:20.677Z,71.71
2022-08-29T03:01:48.532Z,71.16
2022-08-29T03:04:16.377Z,71.31
2022-08-29T03:06:44.196Z,71.62
2022-08-29T03:09:11.992Z,71.36
2022-08-29T03:11:39.955Z,71.05
2022-08-29T03:14:07.787Z,71.16
2022-08-29T03:16:37.073Z,71.03
2022-08-29T03:19:04.863Z,71.24
2022-08-29T03:21:33.411Z,71.90
2022-08-29T03:24:01.175Z,71.51
2022-08-29T03:26:28.985Z,71.26
2022-08-29T03:28:56.727Z,70.75
2022-08-29T03:31:24.663Z,70.43
2022-08-29T03:33:54.036Z,70.50
2022-08-29T03:36:21.889Z,70.44
2022-08-29T03:38:49.650Z,70.68
2022-08-29T03:41:22.166Z,71.50
2022-08-29T03:43:49.957Z,71.81
2022-08-29T03:46:17.837Z,71.69
2022-08-29T03:48:45.816Z,72.25
2022-08-29T03:51:15.111Z,72.27
2022-08-29T03:53:43.424Z,72.54
2022-08-29T03:56:18.560Z,72.87
2022-08-29T03:58:52.610Z,73.11
2022-08-29T04:01:22.486Z,73.38
2022-08-29T04:03:51.040Z,73.52
2022-08-29T04:06:20.262Z,73.89
2022-08-29T04:08:48.625Z,73.83
2022-08-29T04:11:17.959Z,74.04
2022-08-29T04:13:46.369Z,74.20
2022-08-29T04:16:16.450Z,73.51
2022-08-29T04:18:44.774Z,72.77
2022-08-29T04:21:13.478Z,72.07
2022-08-29T04:23:42.718Z,72.46
2022-08-29T04:26:35.160Z,72.51
2022-08-29T04:29:03.163Z,72.31
2022-08-29T04:31:30.939Z,72.59
2022-08-29T04:33:58.902Z,72.29
2022-08-29T04:36:28.111Z,71.54
2022-08-29T04:38:57.907Z,71.62
2022-08-29T04:41:25.721Z,71.41
2022-08-29T04:43:53.521Z,71.60
2022-08-29T04:46:24.467Z,71.44
2022-08-29T04:48:53.382Z,71.61
2022-08-29T04:51:22.501Z,71.13
2022-08-29T04:53:51.704Z,71.12
2022-08-29T04:56:22.371Z,71.11
2022-08-29T04:58:52.022Z,71.47
2022-08-29T05:01:22.626Z,71.08
2022-08-29T05:03:52.116Z,71.56
2022-08-29T05:06:22.528Z,71.40
2022-08-29T05:08:59.323Z,70.94
2022-08-29T05:11:30.752Z,70.91
2022-08-29T05:13:59.126Z,70.70
2022-08-29T05:16:27.400Z,70.32
2022-08-29T05:18:55.222Z,70.06
2022-08-29T05:21:28.356Z,70.23
2022-08-29T05:23:57.157Z,70.52
2022-08-29T05:26:26.265Z,69.83
2022-08-29T05:28:55.333Z,69.34
2022-08-29T05:31:23.584Z,69.21
2022-08-29T05:33:51.919Z,69.26
2022-08-29T05:36:20.196Z,68.49
2022-08-29T05:38:48.208Z,68.80
2022-08-29T05:41:16.095Z,68.19
2022-08-29T05:43:43.929Z,68.36
2022-08-29T05:46:13.173Z,68.51
2022-08-29T05:48:43.036Z,68.31
2022-08-29T05:51:16.461Z,67.90
2022-08-29T05:53:44.461Z,68.55
2022-08-29T05:56:12.869Z,68.10
2022-08-29T05:58:40.633Z,67.49
2022-08-29T06:01:08.386Z,67.57
2022-08-29T06:03:39.046Z,67.59
2022-08-29T06:06:08.656Z,67.83
2022-08-29T06:08:36.362Z,67.11
2022-08-29T06:11:04.294Z,67.52
2022-08-29T06:13:32.021Z,67.53
2022-08-29T06:15:59.919Z,67.88
2022-08-29T06:18:35.852Z,67.72
2022-08-29T06:21:06.751Z,67.16
2022-08-29T06:23:34.706Z,65.93
2022-08-29T06:26:02.629Z,66.53
2022-08-29T06:28:32.121Z,66.36
2022-08-29T06:31:06.692Z,65.66
2022-08-29T06:33:34.862Z,65.26
2022-08-29T06:36:04.585Z,64.76
2022-08-29T06:38:34.181Z,64.71
2022-08-29T06:41:03.588Z,64.93
2022-08-29T06:43:31.349Z,65.01
2022-08-29T06:45:59.467Z,65.13
2022-08-29T06:48:29.575Z,64.95
2022-08-29T06:50:58.316Z,64.71
2022-08-29T06:53:32.104Z,63.91
2022-08-29T06:56:06.769Z,62.92
2022-08-29T06:58:39.390Z,63.35
2022-08-29T07:01:08.507Z,61.16
2022-08-29T07:03:36.463Z,48.70
2022-08-29T07:06:04.645Z,37.91
2022-08-29T07:08:33.709Z,31.25
2022-08-29T07:11:01.514Z,27.30
2022-08-29T07:13:31.250Z,27.22
2022-08-29T07:15:59.153Z,27.29
2022-08-29T07:18:27.045Z,24.84
2022-08-29T07:20:54.980Z,22.74
2022-08-29T07:23:23.230Z,21.97
2022-08-29T07:25:54.443Z,25.11
2022-08-29T07:28:22.235Z,23.58
2022-08-29T07:30:52.141Z,24.55
2022-08-29T07:33:20.081Z,26.21
2022-08-29T07:35:48.266Z,25.12
2022-08-29T07:38:16.151Z,23.89
2022-08-29T07:40:44.154Z,22.48
2022-08-29T07:43:15.428Z,24.87
2022-08-29T07:45:45.756Z,26.15
2022-08-29T07:48:15.121Z,24.95
2022-08-29T07:50:43.900Z,25.36
2022-08-29T07:53:11.710Z,25.26
2022-08-29T07:55:39.550Z,24.92
2022-08-29T07:58:07.547Z,25.60
2022-08-29T08:00:35.374Z,24.97
2022-08-29T08:03:03.222Z,26.02
2022-08-29T08:05:32.419Z,26.33
2022-08-29T08:08:05.314Z,26.85
2022-08-29T08:10:39.444Z,25.21
2022-08-29T08:13:07.832Z,24.39
2022-08-29T08:15:35.699Z,24.92
2022-08-29T08:18:03.453Z,26.21
2022-08-29T08:20:32.557Z,23.38
2022-08-29T08:23:00.360Z,24.97
2022-08-29T08:25:28.398Z,23.72
2022-08-29T08:27:57.037Z,22.26
2022-08-29T08:30:25.529Z,22.51
2022-08-29T08:32:55.131Z,21.76
2022-08-29T08:35:23.180Z,22.88
2022-08-29T08:37:53.329Z,23.19
2022-08-29T08:40:23.788Z,21.71
2022-08-29T08:42:51.970Z,23.91
2022-08-29T08:45:23.131Z,27.07
2022-08-29T08:47:54.327Z,24.33
2022-08-29T08:50:27.762Z,25.30
2022-08-29T08:53:00.760Z,27.01
2022-08-29T08:55:39.868Z,24.85
2022-08-29T08:58:16.618Z,26.43
2022-08-29T09:00:47.582Z,24.13
2022-08-29T09:03:46.761Z,27.84
2022-08-29T09:06:26.995Z,25.90
2022-08-29T09:09:06.101Z,26.33
2022-08-29T09:11:49.955Z,28.33
2022-08-29T09:14:33.694Z,28.94
2022-08-29T09:17:03.297Z,27.71
2022-08-29T09:19:32.252Z,26.81
2022-08-29T09:22:07.616Z,27.07
2022-08-29T09:24:41.728Z,27.82
2022-08-29T09:27:18.707Z,26.96
2022-08-29T09:29:48.797Z,29.05
2022-08-29T09:32:22.174Z,29.29
2022-08-29T09:35:08.434Z,30.64
2022-08-29T09:37:37.434Z,30.60
2022-08-29T09:40:11.052Z,27.18
2022-08-29T09:42:42.453Z,28.70
2022-08-29T09:45:20.359Z,32.81
2022-08-29T09:47:48.292Z,33.45
2022-08-29T09:50:24.540Z,33.95
2022-08-29T09:52:54.346Z,31.07
2022-08-29T09:55:30.402Z,31.79
2022-08-29T09:58:02.331Z,34.55
2022-08-29T10:00:34.023Z,37.22
2022-08-29T10:03:04.300Z,36.43
2022-08-29T10:05:42.476Z,35.15
2022-08-29T10:08:30.467Z,33.34
2022-08-29T10:11:02.881Z,30.37
2022-08-29T10:13:48.319Z,32.27
2022-08-29T10:16:24.689Z,31.69
2022-08-29T10:18:57.910Z,31.89
2022-08-29T10:21:33.614Z,32.96
2022-08-29T10:24:24.173Z,33.33
2022-08-29T10:27:00.986Z,33.94
2022-08-29T10:29:52.149Z,32.98
2022-08-29T10:32:34.056Z,32.63
2022-08-29T10:35:09.622Z,32.89
2022-08-29T10:37:48.626Z,33.92
2022-08-29T10:40:23.953Z,33.28
2022-08-29T10:43:12.490Z,31.57
2022-08-29T10:45:57.592Z,31.39
2022-08-29T10:48:31.449Z,32.79
2022-08-29T10:51:17.278Z,30.81
2022-08-29T10:53:49.692Z,32.50
2022-08-29T10:56:22.786Z,31.68
2022-08-29T10:59:04.013Z,32.96
2022-08-29T11:01:35.896Z,33.81
2022-08-29T11:04:17.566Z,32.89
2022-08-29T11:06:53.744Z,34.87
2022-08-29T11:09:25.313Z,37.42
2022-08-29T11:12:05.568Z,35.64
2022-08-29T11:14:39.101Z,33.97
2022-08-29T11:17:10.210Z,35.97
2022-08-29T11:19:49.345Z,35.35
2022-08-29T11:22:21.202Z,36.70
2022-08-29T11:24:58.444Z,33.55
2022-08-29T11:27:37.787Z,35.35
2022-08-29T11:30:11.102Z,36.16
2022-08-29T11:32:48.616Z,35.36
2022-08-29T11:35:22.682Z,36.29
2022-08-29T11:38:26.797Z,38.11
2022-08-29T11:44:14.182Z,36.53
2022-08-29T11:46:52.894Z,35.61
2022-08-29T11:49:37.097Z,37.15
2022-08-29T11:52:25.406Z,35.52
2022-08-29T11:55:15.819Z,36.40
2022-08-29T11:58:04.190Z,35.67
2022-08-29T12:00:51.146Z,36.02
2022-08-29T12:03:57.186Z,35.37
2022-08-29T12:06:37.112Z,36.37
2022-08-29T12:09:18.431Z,35.71
2022-08-29T12:12:20.715Z,38.12
2022-08-29T12:14:50.122Z,37.51
2022-08-29T12:18:00.818Z,36.89
2022-08-29T12:20:52.563Z,36.04
2022-08-29T12:23:26.901Z,37.18
2022-08-29T12:26:15.774Z,36.92
2022-08-29T12:28:47.774Z,38.20
2022-08-29T12:32:18.219Z,37.18
2022-08-29T12:34:55.724Z,40.09
2022-08-29T12:37:52.453Z,38.76
2022-08-29T12:40:39.643Z,37.28
2022-08-29T12:43:29.752Z,36.34
2022-08-29T12:45:58.554Z,36.95
2022-08-29T12:48:29.632Z,35.61
2022-08-29T12:50:57.769Z,36.51
2022-08-29T12:53:30.224Z,37.40
2022-08-29T12:56:00.163Z,38.56
2022-08-29T12:58:36.752Z,35.67
2022-08-29T13:01:07.846Z,36.76
2022-08-29T13:03:36.445Z,37.16
2022-08-29T13:06:08.422Z,36.49
2022-08-29T13:08:38.162Z,36.61
2022-08-29T13:11:08.118Z,36.25
2022-08-29T13:13:36.772Z,36.84
2022-08-29T13:16:07.916Z,34.59
2022-08-29T13:18:49.102Z,36.58
2022-08-29T13:21:25.986Z,36.97
2022-08-29T13:24:05.356Z,34.90
2022-08-29T13:26:34.188Z,32.80
2022-08-29T13:29:22.076Z,36.99
2022-08-29T13:32:23.806Z,35.67
2022-08-29T13:35:05.224Z,36.49
2022-08-29T13:37:36.150Z,33.94
2022-08-29T13:40:30.647Z,34.84
2022-08-29T13:43:00.319Z,36.82
2022-08-29T13:45:28.361Z,34.57
2022-08-29T13:47:59.611Z,36.56
2022-08-29T13:50:28.046Z,34.72
2022-08-29T13:52:57.671Z,35.77
2022-08-29T13:55:25.811Z,34.60
2022-08-29T13:57:56.352Z,35.38
2022-08-29T14:00:35.026Z,35.55
2022-08-29T14:03:06.989Z,33.44
2022-08-29T14:05:36.143Z,33.44
2022-08-29T14:08:05.359Z,32.46
2022-08-29T14:10:33.272Z,35.91
2022-08-29T14:13:02.917Z,35.48
2022-08-29T14:15:30.892Z,34.57
2022-08-29T14:17:59.372Z,36.34
2022-08-29T14:20:27.478Z,35.95
2022-08-29T14:22:55.412Z,34.96
2022-08-29T14:25:23.333Z,34.55
2022-08-29T14:27:51.697Z,35.05
2022-08-29T14:30:22.909Z,36.02
2022-08-29T14:32:50.962Z,36.15
2022-08-29T14:35:26.485Z,34.30
2022-08-29T14:37:59.390Z,36.44
2022-08-29T14:40:29.087Z,36.63
2022-08-29T14:42:57.555Z,35.38
2022-08-29T14:45:27.513Z,36.17
2022-08-29T14:47:55.700Z,35.93
2022-08-29T14:50:24.275Z,36.87
2022-08-29T14:52:52.359Z,37.34
2022-08-29T14:55:21.266Z,36.96
2022-08-29T14:57:49.239Z,37.49
2022-08-29T15:00:19.931Z,38.14
2022-08-29T15:02:49.545Z,36.74
2022-08-29T15:05:17.429Z,36.80
2022-08-29T15:07:45.843Z,38.91
2022-08-29T15:10:15.610Z,39.80
2022-08-29T15:12:43.519Z,37.99
2022-08-29T15:15:12.528Z,38.45
2022-08-29T15:17:43.585Z,37.51
2022-08-29T15:20:35.359Z,34.91
2022-08-29T15:23:03.453Z,34.65
2022-08-29T15:25:31.378Z,37.56
2022-08-29T15:27:59.437Z,37.40
2022-08-29T15:30:27.516Z,37.49
2022-08-29T15:32:55.815Z,38.07
2022-08-29T15:35:25.590Z,38.85
2022-08-29T15:37:54.401Z,38.82
2022-08-29T15:40:23.069Z,40.80
2022-08-29T15:42:51.097Z,40.29
2022-08-29T15:45:19.166Z,39.69
2022-08-29T15:47:54.115Z,39.35
2022-08-29T15:50:23.711Z,37.31
2022-08-29T15:52:53.586Z,38.74
2022-08-29T15:55:22.389Z,38.88
2022-08-29T15:57:52.424Z,37.12
2022-08-29T16:00:30.454Z,37.50
2022-08-29T16:03:03.560Z,37.49
2022-08-29T16:05:32.585Z,37.47
2022-08-29T16:08:02.071Z,37.52
2022-08-29T16:10:30.014Z,38.18
2022-08-29T16:12:58.377Z,37.99
2022-08-29T16:15:27.782Z,38.40
2022-08-29T16:17:55.794Z,38.66
2022-08-29T16:20:23.814Z,39.74
2022-08-29T16:22:51.854Z,39.56
2022-08-29T16:25:22.510Z,39.63
2022-08-29T16:27:50.847Z,40.51
2022-08-29T16:30:19.185Z,40.19
2022-08-29T16:32:48.408Z,40.69
2022-08-29T16:35:16.845Z,40.94
2022-08-29T16:37:44.885Z,42.19
2022-08-29T16:40:15.890Z,42.50
2022-08-29T16:42:55.648Z,42.33
2022-08-29T16:45:23.871Z,42.70
2022-08-29T16:47:56.732Z,43.05
2022-08-29T16:50:26.710Z,42.00
2022-08-29T16:52:54.822Z,42.06
2022-08-29T16:55:24.815Z,41.11
2022-08-29T16:58:11.676Z,40.16
2022-08-29T17:00:40.278Z,41.18
2022-08-29T17:03:08.146Z,41.75
2022-08-29T17:05:36.018Z,43.36
2022-08-29T17:08:03.251Z,42.07
2022-08-29T17:10:29.998Z,41.84
2022-08-29T17:12:58.075Z,41.23
2022-08-29T17:15:24.926Z,42.29
2022-08-29T17:17:52.747Z,42.84
2022-08-29T17:20:20.773Z,43.26
2022-08-29T17:22:48.581Z,44.13
2022-08-29T17:25:16.486Z,45.26
2022-08-29T17:27:55.605Z,45.46
2022-08-29T17:30:33.587Z,46.79
2022-08-29T17:33:02.725Z,47.30
2022-08-29T17:35:31.283Z,48.40
2022-08-29T17:37:59.625Z,47.96
2022-08-29T17:40:27.563Z,48.81
2022-08-29T17:42:55.449Z,49.44
2022-08-29T17:45:23.325Z,50.01
2022-08-29T17:47:52.477Z,50.71
2022-08-29T17:50:20.420Z,50.34
2022-08-29T17:52:48.225Z,51.23
2022-08-29T17:55:16.300Z,53.29
2022-08-29T17:57:44.177Z,53.28
2022-08-29T18:00:13.152Z,54.10
2022-08-29T18:02:41.754Z,54.57
2022-08-29T18:05:12.674Z,55.42
2022-08-29T18:07:41.406Z,56.12
2022-08-29T18:10:11.424Z,56.71
2022-08-29T18:12:39.611Z,56.70
2022-08-29T18:15:09.271Z,56.97
2022-08-29T18:17:37.686Z,57.49
2022-08-29T18:20:07.585Z,57.78
2022-08-29T18:22:37.154Z,58.80
2022-08-29T18:25:06.311Z,59.03
2022-08-29T18:27:34.446Z,59.36
2022-08-29T18:30:02.952Z,59.34
2022-08-29T18:32:34.759Z,59.59
2022-08-29T18:35:05.985Z,59.56
2022-08-29T18:37:33.787Z,59.47
2022-08-29T18:40:03.642Z,60.08
2022-08-29T18:42:40.523Z,60.75
2022-08-29T18:45:10.313Z,61.34
2022-08-29T18:47:38.516Z,61.52
2022-08-29T18:50:25.458Z,62.53
2022-08-29T18:52:55.283Z,62.29
2022-08-29T18:55:25.078Z,61.93
2022-08-29T18:57:53.189Z,61.95
2022-08-29T19:00:21.710Z,61.89
2022-08-29T19:02:49.508Z,61.90
2022-08-29T19:05:18.444Z,61.71
2022-08-29T19:07:46.261Z,61.87
2022-08-29T19:10:14.731Z,61.94
2022-08-29T19:12:44.261Z,63.12
2022-08-29T19:15:15.748Z,63.29
2022-08-29T19:17:43.945Z,63.76
2022-08-29T19:20:28.568Z,63.83
2022-08-29T19:22:56.470Z,64.16
2022-08-29T19:25:24.350Z,64.29
2022-08-29T19:27:53.544Z,63.83
2022-08-29T19:30:21.554Z,64.07
2022-08-29T19:32:49.952Z,64.23
2022-08-29T19:35:18.315Z,64.27
2022-08-29T19:37:46.140Z,64.49
2022-08-29T19:40:17.520Z,64.10
2022-08-29T19:42:47.992Z,63.81
2022-08-29T19:45:20.212Z,64.57
2022-08-29T19:47:49.444Z,64.23
2022-08-29T19:50:18.727Z,64.17
2022-08-29T19:52:46.634Z,64.15
2022-08-29T19:55:17.776Z,63.96
2022-08-29T19:57:47.402Z,64.16
2022-08-29T20:00:19.860Z,64.78
2022-08-29T20:02:47.695Z,65.33
2022-08-29T20:05:18.164Z,65.13
2022-08-29T20:07:49.607Z,65.50
2022-08-29T20:10:21.474Z,65.41
2022-08-29T20:12:51.716Z,65.44
2022-08-29T20:15:26.768Z,65.31
2022-08-29T20:17:59.382Z,65.56
2022-08-29T20:20:30.449Z,65.13
2022-08-29T20:22:58.466Z,64.97
2022-08-29T20:25:26.660Z,64.84
2022-08-29T20:27:54.427Z,65.15
2022-08-29T20:30:27.128Z,65.39
2022-08-29T20:32:55.716Z,65.39
2022-08-29T20:35:38.208Z,65.29
2022-08-29T20:38:06.156Z,66.47
2022-08-29T20:40:37.132Z,67.37
2022-08-29T20:43:06.186Z,66.49
2022-08-29T20:45:35.548Z,66.21
2022-08-29T20:48:03.656Z,66.27
2022-08-29T20:50:31.667Z,66.06
2022-08-29T20:52:59.505Z,65.91
2022-08-29T20:55:27.428Z,66.64
2022-08-29T20:57:55.251Z,65.94
2022-08-29T21:00:23.649Z,66.91
2022-08-29T21:03:10.326Z,66.36
2022-08-29T21:05:42.598Z,66.59
2022-08-29T21:08:12.424Z,66.38
2022-08-29T21:10:40.607Z,66.48
2022-08-29T21:13:09.354Z,66.95
2022-08-29T21:15:38.055Z,66.25
2022-08-29T21:18:08.310Z,66.40
2022-08-29T21:20:37.870Z,66.27
2022-08-29T21:23:13.220Z,65.97
2022-08-29T21:25:41.263Z,65.86
2022-08-29T21:28:09.539Z,66.53
2022-08-29T21:30:41.372Z,66.33
2022-08-29T21:33:14.336Z,66.13
2022-08-29T21:35:42.296Z,66.38
2022-08-29T21:38:11.334Z,66.45
2022-08-29T21:40:46.745Z,66.47
2022-08-29T21:43:19.793Z,66.13
2022-08-29T21:45:47.940Z,67.10
2022-08-29T21:48:17.345Z,66.80
2022-08-29T21:50:45.539Z,66.89
2022-08-29T21:53:14.385Z,66.98
2022-08-29T21:55:42.391Z,66.38
2022-08-29T21:58:10.295Z,65.96
2022-08-29T22:00:42.055Z,66.53
2022-08-29T22:03:12.373Z,67.02
2022-08-29T22:05:43.948Z,67.26
2022-08-29T22:08:13.813Z,67.40
2022-08-29T22:10:43.170Z,67.44
2022-08-29T22:13:11.111Z,67.42
2022-08-29T22:15:56.781Z,67.58
2022-08-29T22:18:24.608Z,67.19
2022-08-29T22:20:55.578Z,67.03
2022-08-29T22:23:25.376Z,66.76
2022-08-29T22:25:53.981Z,67.80
2022-08-29T22:28:21.815Z,68.42
2022-08-29T22:30:49.787Z,67.50
2022-08-29T22:33:18.060Z,67.56
2022-08-29T22:35:46.506Z,67.22
2022-08-29T22:38:15.598Z,67.85
2022-08-29T22:40:44.566Z,67.56
2022-08-29T22:43:12.504Z,68.19
2022-08-29T22:45:41.614Z,69.54
2022-08-29T22:48:09.489Z,68.68
2022-08-29T22:50:37.638Z,67.63
2022-08-29T22:53:05.817Z,67.26
2022-08-29T22:55:35.003Z,67.21
2022-08-29T22:58:04.725Z,67.77
2022-08-29T23:00:32.471Z,67.54
2022-08-29T23:03:02.207Z,67.40
2022-08-29T23:05:31.052Z,67.79
2022-08-29T23:07:58.812Z,67.64
2022-08-29T23:10:26.611Z,67.45
2022-08-29T23:12:55.875Z,67.90
2022-08-29T23:15:23.850Z,68.36
2022-08-29T23:17:51.686Z,68.67
2022-08-29T23:20:19.685Z,68.38
2022-08-29T23:22:47.441Z,67.99
2022-08-29T23:25:16.533Z,68.80
2022-08-29T23:27:44.439Z,69.17
2022-08-29T23:30:15.274Z,68.44
2022-08-29T23:32:43.094Z,68.54
2022-08-29T23:35:11.404Z,68.37
2022-08-29T23:37:39.180Z,68.05
2022-08-29T23:40:08.138Z,67.49
2022-08-29T23:42:37.076Z,67.31
2022-08-29T23:45:06.656Z,66.93
2022-08-29T23:47:36.092Z,66.71
2022-08-29T23:50:05.054Z,66.95
2022-08-29T23:52:32.806Z,67.52
2022-08-29T23:55:01.773Z,68.25
2022-08-29T23:57:29.534Z,68.31
